createdAt,value
2024-01-20T00:01:32.596Z,24.20
2024-01-20T00:04:41.798Z,24.30
2024-01-20T00:07:52.474Z,24.40
2024-01-20T00:11:04.149Z,24.60
2024-01-20T00:14:16.980Z,24.80
2024-01-20T00:17:29.883Z,24.90
2024-01-20T00:20:49.467Z,25.00
2024-01-20T00:24:03.208Z,25.10
2024-01-20T00:27:16.365Z,25.00
2024-01-20T00:30:30.171Z,24.90
2024-01-20T00:33:41.999Z,24.80
2024-01-20T00:36:55.051Z,24.70
2024-01-20T00:40:08.500Z,24.50
2024-01-20T00:43:20.410Z,24.40
2024-01-20T00:46:33.882Z,24.30
2024-01-20T00:49:45.707Z,24.20
2024-01-20T00:52:57.982Z,24.20
2024-01-20T00:56:07.647Z,24.20
2024-01-20T00:59:19.223Z,24.20
2024-01-20T01:02:31.757Z,24.20
2024-01-20T01:05:40.977Z,24.40
2024-01-20T01:08:54.820Z,24.50
2024-01-20T01:12:07.878Z,24.70
2024-01-20T01:18:35.990Z,24.90
2024-01-20T01:21:49.358Z,24.90
2024-01-20T01:28:17.551Z,24.70
2024-01-20T01:31:29.025Z,24.60
2024-01-20T01:34:41.963Z,24.50
2024-01-20T01:37:56.792Z,24.40
2024-01-20T01:41:08.021Z,24.30
2024-01-20T01:44:18.117Z,24.20
2024-01-20T01:47:29.303Z,24.10
2024-01-20T01:50:39.883Z,24.10
2024-01-20T01:53:48.140Z,24.00
2024-01-20T01:57:02.096Z,24.00
2024-01-20T02:00:17.586Z,23.90
2024-01-20T02:03:28.812Z,23.90
2024-01-20T02:06:42.540Z,23.90
2024-01-20T02:09:56.503Z,24.00
2024-01-20T02:13:08.745Z,24.00
2024-01-20T02:16:22.490Z,24.00
2024-01-20T02:19:34.444Z,24.00
2024-01-20T02:22:46.772Z,23.90
2024-01-20T02:26:00.494Z,23.90
2024-01-20T02:29:11.272Z,23.90
2024-01-20T02:32:21.910Z,23.80
2024-01-20T02:35:31.995Z,23.80
2024-01-20T02:38:41.872Z,23.80
2024-01-20T02:41:52.661Z,23.70
2024-01-20T02:45:05.784Z,23.70
2024-01-20T02:48:15.707Z,23.70
2024-01-20T02:51:27.565Z,23.70
2024-01-20T02:54:38.344Z,23.70
2024-01-20T02:57:48.441Z,23.60
2024-01-20T03:00:59.721Z,23.60
2024-01-20T03:04:13.336Z,23.60
2024-01-20T03:07:24.851Z,23.60
2024-01-20T03:10:38.244Z,23.60
2024-01-20T03:13:48.511Z,23.60
2024-01-20T03:17:00.535Z,23.60
2024-01-20T03:20:18.922Z,23.60
2024-01-20T03:23:32.995Z,23.50
2024-01-20T03:26:44.207Z,23.50
2024-01-20T03:29:52.644Z,23.50
2024-01-20T03:33:03.216Z,23.50
2024-01-20T03:36:19.669Z,23.50
2024-01-20T03:39:33.209Z,23.40
2024-01-20T03:42:43.050Z,23.50
2024-01-20T03:45:55.820Z,23.60
2024-01-20T03:49:10.207Z,23.80
2024-01-20T03:52:23.205Z,23.90
2024-01-20T03:55:34.683Z,24.00
2024-01-20T03:58:47.099Z,24.10
2024-01-20T04:02:01.174Z,24.20
2024-01-20T04:05:17.131Z,24.40
2024-01-20T04:08:26.460Z,24.20
2024-01-20T04:11:35.641Z,24.20
2024-01-20T04:14:47.369Z,24.10
2024-01-20T04:17:58.955Z,24.00
2024-01-20T04:21:13.268Z,23.90
2024-01-20T04:24:24.124Z,23.90
2024-01-20T04:27:36.780Z,23.80
2024-01-20T04:30:49.503Z,23.80
2024-01-20T04:34:02.451Z,23.70
2024-01-20T04:37:15.161Z,23.70
2024-01-20T04:40:26.877Z,23.70
2024-01-20T04:43:40.553Z,23.60
2024-01-20T04:46:54.013Z,23.50
2024-01-20T04:50:07.608Z,23.50
2024-01-20T04:53:19.577Z,23.50
2024-01-20T04:56:29.887Z,23.40
2024-01-20T04:59:41.853Z,23.40
2024-01-20T05:02:53.814Z,23.40
2024-01-20T05:06:08.623Z,23.40
2024-01-20T05:09:20.217Z,23.40
2024-01-20T05:12:32.419Z,23.30
2024-01-20T05:15:46.102Z,23.30
2024-01-20T05:18:59.990Z,23.30
2024-01-20T05:22:13.955Z,23.20
2024-01-20T05:25:21.472Z,23.20
2024-01-20T05:28:33.906Z,23.20
2024-01-20T05:31:46.109Z,23.20
2024-01-20T05:34:56.677Z,23.10
2024-01-20T05:38:10.519Z,23.10
2024-01-20T05:41:19.658Z,23.10
2024-01-20T05:44:32.912Z,23.00
2024-01-20T05:47:45.910Z,23.00
2024-01-20T05:50:59.668Z,22.90
2024-01-20T05:54:11.856Z,22.90
2024-01-20T05:57:19.652Z,22.90
2024-01-20T06:00:30.826Z,22.90
2024-01-20T06:03:41.146Z,23.00
2024-01-20T06:06:53.713Z,23.20
2024-01-20T06:10:07.024Z,23.30
2024-01-20T06:13:16.137Z,23.40
2024-01-20T06:16:26.941Z,23.60
2024-01-20T06:19:38.491Z,23.70
2024-01-20T06:22:51.858Z,23.70
2024-01-20T06:25:58.423Z,23.60
2024-01-20T06:29:10.396Z,23.50
2024-01-20T06:32:19.816Z,23.40
2024-01-20T06:35:33.078Z,23.30
2024-01-20T06:38:42.395Z,23.30
2024-01-20T06:41:56.831Z,23.20
2024-01-20T06:45:12.522Z,23.20
2024-01-20T06:48:24.984Z,23.20
2024-01-20T06:51:35.787Z,23.10
2024-01-20T06:54:48.469Z,23.10
2024-01-20T06:58:01.059Z,23.00
2024-01-20T07:01:14.413Z,23.00
2024-01-20T07:04:24.141Z,22.90
2024-01-20T07:07:38.699Z,22.90
2024-01-20T07:10:51.463Z,22.90
2024-01-20T07:14:06.085Z,22.90
2024-01-20T07:17:19.235Z,22.90
2024-01-20T07:20:29.972Z,23.10
2024-01-20T07:23:41.176Z,23.30
2024-01-20T07:26:51.896Z,23.40
2024-01-20T07:30:07.839Z,23.50
2024-01-20T07:33:22.856Z,23.60
2024-01-20T07:36:35.250Z,23.70
2024-01-20T07:39:46.293Z,23.70
2024-01-20T07:42:56.572Z,23.60
2024-01-20T07:46:08.910Z,23.50
2024-01-20T07:49:22.089Z,23.40
2024-01-20T07:52:32.625Z,23.30
2024-01-20T07:55:44.232Z,23.30
2024-01-20T07:58:55.961Z,23.20
2024-01-20T08:02:10.501Z,23.20
2024-01-20T08:05:20.974Z,23.10
2024-01-20T08:08:32.557Z,23.10
2024-01-20T08:11:43.599Z,23.00
2024-01-20T08:14:54.509Z,23.00
2024-01-20T08:18:07.469Z,22.90
2024-01-20T08:21:18.069Z,22.90
2024-01-20T08:24:27.417Z,22.90
2024-01-20T08:27:38.266Z,22.80
2024-01-20T08:30:53.113Z,22.80
2024-01-20T08:34:05.651Z,22.90
2024-01-20T08:37:19.884Z,23.00
2024-01-20T08:40:29.746Z,23.20
2024-01-20T08:43:41.761Z,23.30
2024-01-20T08:46:53.691Z,23.40
2024-01-20T08:50:07.932Z,23.50
2024-01-20T08:53:21.026Z,23.60
2024-01-20T08:56:32.649Z,23.70
2024-01-20T08:59:46.378Z,23.60
2024-01-20T09:02:57.846Z,23.50
2024-01-20T09:06:10.078Z,23.40
2024-01-20T09:09:22.863Z,23.30
2024-01-20T09:12:35.602Z,23.20
2024-01-20T09:15:47.140Z,23.20
2024-01-20T09:19:00.632Z,23.10
2024-01-20T09:22:09.665Z,23.00
2024-01-20T09:25:20.585Z,23.00
2024-01-20T09:28:33.544Z,22.90
2024-01-20T09:31:46.261Z,22.90
2024-01-20T09:34:57.477Z,22.80
2024-01-20T09:38:08.840Z,22.80
2024-01-20T09:41:17.752Z,22.70
2024-01-20T09:44:27.819Z,22.90
2024-01-20T09:47:38.109Z,23.00
2024-01-20T09:50:50.928Z,23.10
2024-01-20T09:54:02.677Z,23.20
2024-01-20T09:57:13.861Z,23.30
2024-01-20T10:00:32.193Z,23.40
2024-01-20T10:03:43.454Z,23.50
2024-01-20T10:06:57.989Z,23.60
2024-01-20T10:10:09.762Z,23.70
2024-01-20T10:13:19.443Z,23.60
2024-01-20T10:16:31.501Z,23.50
2024-01-20T10:19:44.831Z,23.40
2024-01-20T10:22:52.986Z,23.20
2024-01-20T10:26:10.019Z,23.20
2024-01-20T10:29:19.878Z,23.20
2024-01-20T10:32:47.620Z,23.10
2024-01-20T10:35:48.915Z,23.00
2024-01-20T10:39:04.868Z,23.00
2024-01-20T10:42:19.956Z,22.90
2024-01-20T10:45:35.921Z,22.90
2024-01-20T10:48:49.089Z,22.80
2024-01-20T10:52:00.779Z,22.70
2024-01-20T10:55:14.529Z,22.80
2024-01-20T10:58:28.931Z,22.80
2024-01-20T11:01:38.646Z,23.00
2024-01-20T11:04:50.477Z,23.10
2024-01-20T11:08:08.519Z,23.30
2024-01-20T11:11:18.542Z,23.30
2024-01-20T11:14:35.057Z,23.40
2024-01-20T11:17:47.791Z,23.50
2024-01-20T11:21:08.702Z,23.60
2024-01-20T11:24:18.933Z,23.50
2024-01-20T11:27:30.266Z,23.40
2024-01-20T11:30:45.986Z,23.30
2024-01-20T11:33:58.745Z,23.30
2024-01-20T11:37:15.210Z,23.20
2024-01-20T11:40:27.330Z,23.10
2024-01-20T11:43:36.849Z,23.00
2024-01-20T11:46:50.402Z,23.00
2024-01-20T11:50:05.318Z,22.90
2024-01-20T11:53:19.175Z,22.80
2024-01-20T11:56:34.865Z,22.90
2024-01-20T11:59:46.612Z,23.00
2024-01-20T12:02:58.454Z,23.20
2024-01-20T12:06:17.239Z,23.30
2024-01-20T12:09:30.754Z,23.40
2024-01-20T12:12:41.487Z,23.50
2024-01-20T12:15:55.287Z,23.60
2024-01-20T12:19:06.810Z,23.60
2024-01-20T12:22:18.188Z,23.70
2024-01-20T12:25:30.408Z,23.70
2024-01-20T12:28:41.885Z,23.80
2024-01-20T12:31:54.550Z,23.80
2024-01-20T12:35:06.534Z,23.90
2024-01-20T12:38:18.417Z,23.90
2024-01-20T12:41:30.804Z,24.00
2024-01-20T12:44:47.116Z,24.00
2024-01-20T12:47:56.356Z,24.10
2024-01-20T12:51:09.618Z,24.10
2024-01-20T12:54:21.205Z,24.20
2024-01-20T12:57:31.586Z,24.20
2024-01-20T13:00:47.075Z,24.20
2024-01-20T13:04:01.849Z,24.30
2024-01-20T13:07:15.317Z,24.30
2024-01-20T13:10:28.968Z,24.40
2024-01-20T13:13:40.753Z,24.40
2024-01-20T13:16:53.191Z,24.40
2024-01-20T13:21:15.294Z,24.40
2024-01-20T13:24:28.894Z,24.30
2024-01-20T13:27:40.629Z,24.20
2024-01-20T13:30:53.098Z,24.00
2024-01-20T13:34:05.131Z,23.90
2024-01-20T13:37:21.363Z,23.70
2024-01-20T13:40:35.549Z,23.60
2024-01-20T13:43:47.336Z,23.60
2024-01-20T13:46:59.359Z,23.50
2024-01-20T13:50:12.986Z,23.50
2024-01-20T13:53:25.078Z,23.60
2024-01-20T13:56:38.964Z,23.70
2024-01-20T13:59:53.107Z,23.80
2024-01-20T14:03:03.129Z,24.00
2024-01-20T14:06:13.660Z,24.10
2024-01-20T14:09:26.155Z,24.20
2024-01-20T14:15:57.429Z,24.30
2024-01-20T14:19:09.444Z,24.40
2024-01-20T14:22:21.181Z,24.40
2024-01-20T14:25:32.804Z,24.20
2024-01-20T14:28:42.628Z,24.10
2024-01-20T14:31:54.678Z,24.10
2024-01-20T14:35:08.261Z,23.90
2024-01-20T14:38:20.890Z,23.80
2024-01-20T14:41:31.991Z,23.70
2024-01-20T14:44:44.449Z,23.60
2024-01-20T14:47:55.255Z,23.50
2024-01-20T14:51:05.170Z,23.50
2024-01-20T14:54:19.091Z,23.60
2024-01-20T14:57:28.772Z,23.70
2024-01-20T15:00:41.790Z,23.90
2024-01-20T15:03:55.434Z,23.90
2024-01-20T15:07:07.366Z,24.00
2024-01-20T15:10:23.493Z,23.90
2024-01-20T15:13:35.439Z,23.80
2024-01-20T15:16:48.092Z,23.70
2024-01-20T15:20:01.092Z,23.70
2024-01-20T15:23:12.865Z,23.60
2024-01-20T15:26:25.012Z,23.60
2024-01-20T15:29:34.059Z,23.40
2024-01-20T15:32:44.833Z,23.40
2024-01-20T15:35:56.649Z,23.30
2024-01-20T15:39:08.252Z,23.30
2024-01-20T15:42:21.515Z,23.30
2024-01-20T15:45:33.221Z,23.20
2024-01-20T15:48:41.517Z,23.20
2024-01-20T15:51:54.128Z,23.20
2024-01-20T15:55:05.980Z,23.20
2024-01-20T15:58:17.766Z,23.20
2024-01-20T16:01:29.813Z,23.10
2024-01-20T16:04:40.892Z,23.10
2024-01-20T16:07:50.616Z,23.10
2024-01-20T16:11:03.652Z,23.10
2024-01-20T16:14:19.588Z,23.00
2024-01-20T16:17:33.342Z,23.00
2024-01-20T16:20:44.276Z,23.00
2024-01-20T16:23:55.264Z,23.00
2024-01-20T16:27:11.170Z,22.90
2024-01-20T16:30:19.438Z,22.90
2024-01-20T16:33:33.208Z,22.90
2024-01-20T16:36:44.465Z,22.90
2024-01-20T16:39:57.151Z,22.80
2024-01-20T16:43:06.876Z,22.80
2024-01-20T16:46:21.241Z,22.80
2024-01-20T16:49:32.584Z,22.80
2024-01-20T16:52:43.968Z,22.70
2024-01-20T16:55:57.003Z,22.70
2024-01-20T16:59:10.275Z,22.70
2024-01-20T17:02:21.536Z,22.70
2024-01-20T17:05:30.528Z,22.60
2024-01-20T17:08:45.884Z,22.60
2024-01-20T17:11:56.459Z,22.60
2024-01-20T17:15:08.750Z,22.60
2024-01-20T17:18:23.662Z,22.50
2024-01-20T17:21:36.745Z,22.50
2024-01-20T17:24:50.249Z,22.50
2024-01-20T17:28:01.677Z,22.60
2024-01-20T17:31:12.681Z,22.60
2024-01-20T17:34:22.973Z,22.70
2024-01-20T17:37:34.947Z,22.70
2024-01-20T17:40:49.854Z,22.90
2024-01-20T17:44:00.437Z,23.00
2024-01-20T17:47:14.057Z,23.00
2024-01-20T17:50:27.723Z,23.20
2024-01-20T17:53:42.347Z,23.20
2024-01-20T17:56:53.791Z,23.30
2024-01-20T18:00:10.106Z,23.30
2024-01-20T18:03:25.470Z,23.20
2024-01-20T18:06:34.838Z,23.10
2024-01-20T18:09:46.099Z,23.00
2024-01-20T18:12:59.060Z,23.00
2024-01-20T18:16:14.883Z,23.20
2024-01-20T18:19:27.531Z,23.30
2024-01-20T18:22:40.859Z,23.40
2024-01-20T18:25:53.418Z,23.50
2024-01-20T18:29:05.152Z,23.50
2024-01-20T18:32:15.049Z,23.60
2024-01-20T18:35:26.995Z,23.70
2024-01-20T18:38:39.977Z,23.80
2024-01-20T18:41:50.948Z,23.80
2024-01-20T18:45:03.676Z,23.90
2024-01-20T18:48:17.281Z,24.00
2024-01-20T18:51:29.462Z,24.00
2024-01-20T18:54:40.662Z,24.10
2024-01-20T18:57:50.001Z,24.10
2024-01-20T19:01:01.050Z,24.10
2024-01-20T19:04:14.617Z,24.20
2024-01-20T19:07:23.994Z,24.20
2024-01-20T19:10:36.321Z,24.30
2024-01-20T19:13:48.207Z,24.30
2024-01-20T19:17:01.721Z,24.40
2024-01-20T19:20:16.024Z,24.40
2024-01-20T19:23:25.587Z,24.40
2024-01-20T19:26:37.646Z,24.50
2024-01-20T19:29:48.392Z,24.60
2024-01-20T19:33:05.560Z,24.50
2024-01-20T19:36:17.891Z,24.60
2024-01-20T19:39:30.767Z,24.60
2024-01-20T19:42:41.517Z,24.70
2024-01-20T19:45:51.578Z,24.70
2024-01-20T19:49:07.925Z,24.70
2024-01-20T19:52:16.765Z,24.60
2024-01-20T19:55:28.428Z,24.50
2024-01-20T19:58:40.963Z,24.30
2024-01-20T20:01:51.728Z,24.30
2024-01-20T20:05:06.385Z,24.20
2024-01-20T20:08:16.670Z,24.20
2024-01-20T20:11:29.246Z,24.10
2024-01-20T20:14:42.664Z,24.00
2024-01-20T20:17:53.810Z,23.90
2024-01-20T20:21:04.523Z,23.90
2024-01-20T20:24:16.390Z,23.90
2024-01-20T20:27:30.050Z,23.90
2024-01-20T20:30:39.751Z,24.00
2024-01-20T20:33:52.461Z,24.10
2024-01-20T20:37:05.577Z,24.30
2024-01-20T20:40:19.476Z,24.40
2024-01-20T20:43:27.806Z,24.50
2024-01-20T20:46:41.201Z,24.60
2024-01-20T20:49:51.062Z,24.70
2024-01-20T20:53:03.527Z,24.80
2024-01-20T20:56:16.828Z,24.60
2024-01-20T20:59:24.775Z,24.40
2024-01-20T21:02:36.816Z,24.40
2024-01-20T21:05:51.862Z,24.30
2024-01-20T21:09:04.421Z,24.10
2024-01-20T21:12:15.248Z,24.00
2024-01-20T21:15:26.436Z,23.90
2024-01-20T21:18:41.959Z,23.80
2024-01-20T21:21:56.336Z,23.70
2024-01-20T21:25:08.403Z,23.70
2024-01-20T21:28:19.896Z,23.80
2024-01-20T21:31:28.475Z,23.70
2024-01-20T21:34:40.082Z,23.70
2024-01-20T21:37:53.277Z,23.70
2024-01-20T21:41:05.887Z,23.70
2024-01-20T21:44:16.155Z,23.70
2024-01-20T21:47:28.711Z,23.60
2024-01-20T21:50:38.097Z,23.60
2024-01-20T21:53:50.001Z,23.60
2024-01-20T21:56:59.610Z,23.60
2024-01-20T22:00:12.394Z,23.50
2024-01-20T22:03:25.942Z,23.40
2024-01-20T22:06:35.860Z,23.40
2024-01-20T22:09:45.938Z,23.30
2024-01-20T22:12:55.776Z,23.30
2024-01-20T22:16:08.961Z,23.20
2024-01-20T22:19:19.207Z,23.20
2024-01-20T22:22:32.808Z,23.20
2024-01-20T22:25:48.780Z,23.20
2024-01-20T22:29:03.263Z,23.20
2024-01-20T22:32:14.383Z,23.10
2024-01-20T22:35:29.745Z,23.10
2024-01-20T22:38:43.033Z,23.00
2024-01-20T22:41:51.739Z,23.00
2024-01-20T22:45:04.831Z,23.00
2024-01-20T22:48:16.878Z,23.00
2024-01-20T22:51:29.590Z,22.90
2024-01-20T22:54:41.655Z,22.90
2024-01-20T22:57:51.978Z,22.90
2024-01-20T23:01:00.518Z,22.80
2024-01-20T23:04:13.482Z,22.80
2024-01-20T23:07:26.304Z,22.80
2024-01-20T23:10:38.756Z,22.80
2024-01-20T23:13:49.632Z,22.80
2024-01-20T23:17:00.442Z,22.80
2024-01-20T23:20:14.671Z,22.70
2024-01-20T23:23:25.551Z,22.70
2024-01-20T23:26:35.346Z,22.70
2024-01-20T23:29:46.020Z,22.70
2024-01-20T23:32:57.619Z,22.70
2024-01-20T23:36:09.074Z,22.60
2024-01-20T23:39:22.562Z,22.70
2024-01-20T23:42:35.308Z,22.60
2024-01-20T23:45:45.294Z,22.60
2024-01-20T23:48:55.398Z,22.60
2024-01-20T23:52:06.371Z,22.60
2024-01-20T23:55:16.922Z,22.50
2024-01-20T23:58:27.238Z,22.50
